Latest Coastal Weather Observations for Kalumburu

IDW60701

Issued at 2:22 am WST Friday 27 May 2016 (issued every 10 minutes, with the page automatically refreshed every 10 minutes)

About coastal observations | Map of coastal stations | Coastal observations for WA | Marine services | Other Formats
Station Details ID: 001019 Name: KALUMBURU Lat: -14.30 Lon: 126.65 Height: 23.0 m
Data from the previous 72 hours. | See also: Recent months at Kalumburu
Date/Time
WST
Temp

°C
Wind Pressure Rain
since 9am
mm
Weather Cloud Vis
km
Sea
Height
m
Swell
Dir
 
Speed
knots
Gust
knots
hPa Trend Height
m
Period
s
Dir
27/02:00am 21.7 CALM 0 3 1013.4 - 0.0 - - - - - - -
27/01:30am 21.3 CALM 0 0 1013.5 - 0.0 - - - - - - -
27/01:00am 21.5 S 1 3 1013.7 - 0.0 - - - - - - -
27/12:30am 21.9 CALM 0 0 1013.8 - 0.0 - - - - - - -
27/12:00am 22.7 CALM 0 0 1013.8 - 0.0 - - - - - - -
 
Date/Time
WST
Temp

°C
Wind Pressure Rain
since 9am
mm
Weather Cloud Vis
km
Sea
Height
m
Swell
Dir
 
Speed
knots
Gust
knots
hPa Trend Height
m
Period
s
Dir
26/11:30pm 22.1 ESE 1 4 1013.7 - 0.0 - - - - - - -
26/11:00pm 22.7 CALM 0 0 1013.7 - 0.0 - - - - - - -
26/10:30pm 22.8 CALM 0 0 1013.8 - 0.0 - - - - - - -
26/10:00pm 23.2 CALM 0 0 1013.9 - 0.0 - - - - - - -
26/09:30pm 23.8 CALM 0 0 1013.9 - 0.0 - - - - - - -
26/09:00pm 23.9 CALM 0 0 1013.7 - 0.0 - - - - - - -
26/08:30pm 25.0 SE 1 5 1013.8 - 0.0 - - - - - - -
26/08:00pm 25.1 CALM 0 0 1013.7 - 0.0 - - - - - - -
26/07:30pm 25.5 CALM 0 0 1013.5 - 0.0 - - - - - - -
26/07:00pm 26.1 N 2 3 1013.3 - 0.0 - - - - - - -
26/06:30pm 27.7 NNW 3 4 1013.0 - 0.0 - - - - - - -
26/06:00pm 28.6 N 4 7 1012.7 - 0.0 - - - - - - -
26/05:30pm 29.3 N 6 8 1012.3 - 0.0 - - - - - - -
26/05:00pm 30.3 N 7 10 1012.0 - 0.0 - - - - - - -
26/04:30pm 31.1 NNW 9 13 1011.6 - 0.0 - - - - - - -
26/04:00pm 32.2 N 9 15 1011.1 - 0.0 - - - - - - -
26/03:30pm 33.7 N 9 12 1010.6 - 0.0 - - - - - - -
26/03:00pm 34.5 NNW 7 11 1010.7 - 0.0 - - - - - - -
26/02:30pm 35.1 NW 7 11 1010.7 - 0.0 - - - - - - -
26/02:00pm 35.0 NNW 7 12 1010.9 - 0.0 - - - - - - -
26/01:30pm 35.6 NE 4 7 1011.0 - 0.0 - - - - - - -
26/01:00pm 35.5 N 7 10 1011.3 - 0.0 - - - - - - -
26/12:30pm 36.0 NNE 6 9 1011.9 - 0.0 - - - - - - -
26/12:00pm 35.3 NE 6 10 1012.4 - 0.0 - - - - - - -
26/11:30am 35.2 N 4 9 1012.9 - 0.0 - - - - - - -
26/11:00am 35.1 NNW 4 6 1013.5 - 0.0 - - - - - - -
26/10:30am 33.8 S 3 7 1013.9 - 0.0 - - - - - - -
26/10:00am 33.0 SSW 5 7 1014.3 - 0.0 - - - - - - -
26/09:30am 32.5 S 4 6 1014.6 - 0.0 - - - - - - -
26/09:00am 31.0 S 5 7 1014.7 - 0.0 - - - - - - -
26/08:30am 29.4 S 5 8 1014.8 - 0.0 - - - - - - -
26/08:00am 27.9 S 4 5 1014.8 - 0.0 - - - - - - -
26/07:30am 25.8 SSW 5 7 1014.6 - 0.0 - - - - - - -
26/07:00am 24.2 S 3 5 1014.4 - 0.0 - - - - - - -
26/06:30am 21.6 CALM 0 0 1014.1 - 0.0 - - - - - - -
26/06:00am 20.5 CALM 0 0 1013.7 - 0.0 - - - - - - -
26/05:30am 20.6 CALM 0 0 1013.3 - 0.0 - - - - - - -
26/05:00am 20.7 CALM 0 0 1013.2 - 0.0 - - - - - - -
26/04:30am 20.8 CALM 0 0 1013.0 - 0.0 - - - - - - -
26/04:00am 21.0 CALM 0 0 1012.9 - 0.0 - - - - - - -
26/03:30am 21.5 CALM 0 0 1012.9 - 0.0 - - - - - - -
26/03:00am 21.3 CALM 0 0 1012.9 - 0.0 - - - - - - -
26/02:30am 21.8 CALM 0 0 1012.8 - 0.0 - - - - - - -
26/02:00am 22.0 CALM 0 0 1012.7 - 0.0 - - - - - - -
26/01:30am 22.1 CALM 0 0 1012.8 - 0.0 - - - - - - -
26/01:00am 21.9 CALM 0 0 1013.1 - 0.0 - - - - - - -
26/12:30am 22.4 S 1 3 1013.2 - 0.0 - - - - - - -
26/12:00am 22.9 CALM 0 0 1013.3 - 0.0 - - - - - - -
 
Date/Time
WST
Temp

°C
Wind Pressure Rain
since 9am
mm
Weather Cloud Vis
km
Sea
Height
m
Swell
Dir
 
Speed
knots
Gust
knots
hPa Trend Height
m
Period
s
Dir
25/11:30pm 23.1 CALM 0 0 1013.3 - 0.0 - - - - - - -
25/11:00pm 23.0 CALM 0 0 1013.3 - 0.0 - - - - - - -
25/10:30pm 23.7 CALM 0 0 1013.4 - 0.0 - - - - - - -
25/10:00pm 24.4 CALM 0 0 1013.5 - 0.0 - - - - - - -
25/09:30pm 24.5 CALM 0 0 1013.4 - 0.0 - - - - - - -
25/09:00pm 24.8 CALM 0 0 1013.3 - 0.0 - - - - - - -
25/08:30pm 25.2 E 2 4 1013.4 - 0.0 - - - - - - -
25/08:00pm 25.3 N 2 4 1013.3 - 0.0 - - - - - - -
25/07:30pm 26.1 CALM 0 2 1013.0 - 0.0 - - - - - - -
25/07:00pm 27.1 NNE 3 4 1012.7 - 0.0 - - - - - - -
25/06:30pm 27.6 N 4 5 1012.3 - 0.0 - - - - - - -
25/06:00pm 28.4 NNW 4 6 1011.8 - 0.0 - - - - - - -
25/05:30pm 29.0 NNW 5 7 1011.6 - 0.0 - - - - - - -
25/05:00pm 29.6 NNW 6 10 1011.2 - 0.0 - - - - - - -
25/04:30pm 30.9 NNW 8 12 1011.0 - 0.0 - - - - - - -
25/04:00pm 32.2 N 8 11 1010.5 - 0.0 - - - - - - -
25/03:30pm 32.8 N 9 14 1010.2 - 0.0 - - - - - - -
25/03:00pm 33.8 N 11 16 1009.9 - 0.0 - - - - - - -
25/02:30pm 34.0 NNW 9 13 1009.7 - 0.0 - - - - - - -
25/02:00pm 34.3 NW 7 10 1009.7 - 0.0 - - - - - - -
25/01:30pm 34.8 NW 5 8 1009.9 - 0.0 - - - - - - -
25/01:00pm 34.5 NW 9 14 1010.0 - 0.0 - - - - - - -
25/12:30pm 35.3 NNE 7 11 1010.4 - 0.0 - - - - - - -
25/12:00pm 34.6 NE 7 13 1010.9 - 0.0 - - - - - - -
25/11:30am 35.2 ENE 5 8 1011.4 - 0.0 - - - - - - -
25/11:00am 33.9 NE 4 6 1011.9 - 0.0 - - - - - - -
25/10:30am 33.2 W 5 6 1012.3 - 0.0 - - - - - - -
25/10:00am 32.1 SSW 5 6 1012.8 - 0.0 - - - - - - -
25/09:30am 32.0 SSW 4 6 1013.1 - 0.0 - - - - - - -
25/09:00am 31.2 NW 2 4 1013.3 - - - - - - - - -
25/08:30am 29.4 SW 4 5 1013.4 - - - - - - - - -
25/08:00am 28.1 S 3 5 1013.4 - - - - - - - - -
25/07:30am 26.4 SSE 3 4 1013.4 - - - - - - - - -
25/07:00am 24.4 CALM 0 0 1013.2 - - - - - - - - -
25/06:30am 22.8 CALM 0 0 1013.2 - - - - - - - - -
25/06:00am 21.7 CALM 0 0 1012.9 - - - - - - - - -
25/05:30am 21.7 - - - 1012.5 - - - - - - - - -
25/05:00am 22.4 CALM 0 0 1012.3 - 0.0 - - - - - - -
25/04:30am 22.2 CALM 0 0 1011.9 - 0.0 - - - - - - -
25/04:00am 23.0 SSW 1 4 1011.7 - 0.0 - - - - - - -
25/03:30am 22.9 CALM 0 0 1011.7 - 0.0 - - - - - - -
25/03:00am 22.4 CALM 0 0 1011.7 - 0.0 - - - - - - -
25/02:30am 22.9 CALM 0 0 1011.9 - 0.0 - - - - - - -
25/02:00am 23.2 CALM 0 0 1012.0 - 0.0 - - - - - - -
25/01:30am 23.3 CALM 0 0 1012.1 - 0.0 - - - - - - -
25/01:00am 23.5 CALM 0 0 1012.3 - 0.0 - - - - - - -
25/12:30am 23.7 CALM 0 0 1012.4 - 0.0 - - - - - - -
25/12:00am 23.9 CALM 0 0 1012.4 - 0.0 - - - - - - -
 
Date/Time
WST
Temp

°C
Wind Pressure Rain
since 9am
mm
Weather Cloud Vis
km
Sea
Height
m
Swell
Dir
 
Speed
knots
Gust
knots
hPa Trend Height
m
Period
s
Dir
24/11:30pm 24.0 N 2 3 1012.5 - 0.0 - - - - - - -
24/11:00pm 24.7 S 3 4 1012.7 - 0.0 - - - - - - -
24/10:30pm 24.6 SW 3 4 1012.8 - 0.0 - - - - - - -
24/10:00pm 25.0 CALM 0 0 1012.8 - 0.0 - - - - - - -
24/09:30pm 25.6 CALM 0 0 1013.0 - 0.0 - - - - - - -
24/09:00pm 25.6 CALM 0 0 1013.1 - 0.0 - - - - - - -
24/08:30pm 26.0 CALM 0 0 1013.1 - 0.0 - - - - - - -
24/08:00pm 27.0 NW 3 4 1012.9 - 0.0 - - - - - - -
24/07:30pm 27.8 N 4 5 1012.5 - 0.0 - - - - - - -
24/07:00pm 28.4 N 5 6 1012.2 - 0.0 - - - - - - -
24/06:30pm 28.8 NNW 4 6 1011.9 - 0.0 - - - - - - -
24/06:00pm 28.9 N 6 10 1011.7 - 0.0 - - - - - - -
24/05:30pm 29.1 N 6 9 1011.3 - 0.0 - - - - - - -
24/05:00pm 29.7 N 8 13 1011.0 - 0.0 - - - - - - -
24/04:30pm 30.5 NNW 8 13 1010.5 - 0.0 - - - - - - -
24/04:00pm 31.9 NNW 9 12 1010.3 - 0.0 - - - - - - -
24/03:30pm 33.1 N 9 12 1010.0 - 0.0 - - - - - - -
24/03:00pm 33.3 NNW 10 13 1010.1 - 0.0 - - - - - - -
24/02:30pm 34.1 N 8 11 1010.1 - 0.0 - - - - - - -
24/02:00pm 34.7 NNW 7 10 1010.2 - 0.0 - - - - - - -
24/01:30pm 34.9 NW 7 10 1010.4 - 0.0 - - - - - - -
24/01:00pm 34.8 NW 8 12 1010.7 - 0.0 - - - - - - -
24/12:30pm 34.9 NNW 7 10 1011.0 - 0.0 - - - - - - -
24/12:00pm 34.5 NW 4 9 1011.5 - 0.0 - - - - - - -
24/11:30am 34.3 ENE 5 7 1012.1 - 0.0 - - - - - - -
24/11:00am 34.6 NNE 5 8 1012.6 - 0.0 - - - - - - -
24/10:30am 34.2 ENE 4 8 1012.9 - 0.0 - - - - - - -
24/10:00am 32.9 E 5 8 1013.4 - 0.0 - - - - - - -
24/09:30am 32.6 E 5 8 1013.7 - 0.0 - - - - - - -
24/09:00am 31.1 ESE 5 9 1013.8 - 0.0 - - - - - - -
24/08:30am 29.9 S 4 7 1013.8 - 0.0 - - - - - - -
24/08:00am 28.5 S 5 8 1013.7 - 0.0 - - - - - - -
24/07:30am 26.9 S 5 6 1013.6 - 0.0 - - - - - - -
24/07:00am 25.4 S 4 6 1013.5 - 0.0 - - - - - - -
24/06:30am 24.0 SSW 5 7 1013.4 - 0.0 - - - - - - -
24/06:00am 23.2 SSW 4 7 1013.2 - 0.0 - - - - - - -
24/05:30am 23.4 SSW 5 7 1012.8 - 0.0 - - - - - - -
24/05:00am 23.5 S 4 7 1012.7 - 0.0 - - - - - - -
24/04:30am 23.2 S 4 6 1012.5 - 0.0 - - - - - - -
24/04:00am 23.0 S 3 4 1012.4 - 0.0 - - - - - - -
24/03:30am 23.2 SSW 3 4 1012.3 - 0.0 - - - - - - -
24/03:00am 23.7 S 3 5 1012.2 - 0.0 - - - - - - -
24/02:30am 23.9 S 4 6 1012.4 - 0.0 - - - - - - -

Other Formats:

Comma delimited format used in spreadsheet applications
http://www.bom.gov.au/fwo/IDW60701/IDW60701.94100.axf

JavaScript Object Notation format (JSON) in row-major order
http://www.bom.gov.au/fwo/IDW60701/IDW60701.94100.json